sensor_id;sensor_type;location;lat;lon;timestamp;P1;durP1;ratioP1;P2;durP2;ratioP2
5646;SDS011;2845;48.626;9.362;2023-06-10T00:01:34;5.45;;;3.45;;
5646;SDS011;2845;48.626;9.362;2023-06-10T00:04:10;6.63;;;3.65;;
5646;SDS011;2845;48.626;9.362;2023-06-10T00:06:44;6.35;;;3.58;;
5646;SDS011;2845;48.626;9.362;2023-06-10T00:09:20;4.97;;;3.20;;
5646;SDS011;2845;48.626;9.362;2023-06-10T00:11:55;7.13;;;3.80;;
5646;SDS011;2845;48.626;9.362;2023-06-10T00:14:32;5.57;;;3.55;;
5646;SDS011;2845;48.626;9.362;2023-06-10T00:17:06;8.35;;;3.90;;
5646;SDS011;2845;48.626;9.362;2023-06-10T00:19:43;6.50;;;4.28;;
5646;SDS011;2845;48.626;9.362;2023-06-10T00:22:19;5.43;;;3.38;;
5646;SDS011;2845;48.626;9.362;2023-06-10T00:24:54;6.63;;;3.95;;
5646;SDS011;2845;48.626;9.362;2023-06-10T00:27:29;6.45;;;3.50;;
5646;SDS011;2845;48.626;9.362;2023-06-10T00:30:07;6.22;;;3.47;;
5646;SDS011;2845;48.626;9.362;2023-06-10T00:32:43;6.95;;;3.67;;
5646;SDS011;2845;48.626;9.362;2023-06-10T00:35:18;6.97;;;3.55;;
5646;SDS011;2845;48.626;9.362;2023-06-10T00:37:52;5.60;;;3.20;;
5646;SDS011;2845;48.626;9.362;2023-06-10T00:40:26;4.82;;;3.33;;
5646;SDS011;2845;48.626;9.362;2023-06-10T00:43:00;5.70;;;3.50;;
5646;SDS011;2845;48.626;9.362;2023-06-10T00:45:35;5.85;;;3.28;;
5646;SDS011;2845;48.626;9.362;2023-06-10T00:48:09;7.13;;;3.63;;
5646;SDS011;2845;48.626;9.362;2023-06-10T00:50:44;4.80;;;3.17;;
5646;SDS011;2845;48.626;9.362;2023-06-10T00:53:19;5.80;;;3.60;;
5646;SDS011;2845;48.626;9.362;2023-06-10T00:55:54;5.45;;;3.17;;
5646;SDS011;2845;48.626;9.362;2023-06-10T00:58:29;6.38;;;3.65;;
5646;SDS011;2845;48.626;9.362;2023-06-10T01:01:03;6.05;;;3.65;;
5646;SDS011;2845;48.626;9.362;2023-06-10T01:03:37;7.38;;;4.00;;
5646;SDS011;2845;48.626;9.362;2023-06-10T01:06:17;8.18;;;3.90;;
5646;SDS011;2845;48.626;9.362;2023-06-10T01:09:02;6.65;;;3.65;;
5646;SDS011;2845;48.626;9.362;2023-06-10T01:11:47;6.68;;;3.63;;
5646;SDS011;2845;48.626;9.362;2023-06-10T01:14:27;8.52;;;4.18;;
5646;SDS011;2845;48.626;9.362;2023-06-10T01:17:04;6.32;;;3.50;;
5646;SDS011;2845;48.626;9.362;2023-06-10T01:19:41;8.57;;;4.10;;
5646;SDS011;2845;48.626;9.362;2023-06-10T01:22:17;5.50;;;3.30;;
5646;SDS011;2845;48.626;9.362;2023-06-10T01:24:52;6.35;;;3.53;;
5646;SDS011;2845;48.626;9.362;2023-06-10T01:27:31;6.57;;;3.55;;
5646;SDS011;2845;48.626;9.362;2023-06-10T01:30:13;6.78;;;3.65;;
5646;SDS011;2845;48.626;9.362;2023-06-10T01:32:51;7.63;;;4.55;;
5646;SDS011;2845;48.626;9.362;2023-06-10T01:35:27;5.78;;;3.45;;
5646;SDS011;2845;48.626;9.362;2023-06-10T01:38:05;5.22;;;3.50;;
5646;SDS011;2845;48.626;9.362;2023-06-10T01:40:41;6.40;;;3.83;;
5646;SDS011;2845;48.626;9.362;2023-06-10T01:43:15;6.22;;;3.28;;
5646;SDS011;2845;48.626;9.362;2023-06-10T01:45:49;5.53;;;3.75;;
5646;SDS011;2845;48.626;9.362;2023-06-10T01:48:24;5.95;;;3.47;;
5646;SDS011;2845;48.626;9.362;2023-06-10T01:50:58;9.52;;;3.83;;
5646;SDS011;2845;48.626;9.362;2023-06-10T01:53:33;6.00;;;3.28;;
5646;SDS011;2845;48.626;9.362;2023-06-10T01:56:07;5.18;;;3.20;;
5646;SDS011;2845;48.626;9.362;2023-06-10T01:58:42;6.10;;;3.92;;
5646;SDS011;2845;48.626;9.362;2023-06-10T02:01:16;6.82;;;3.53;;
5646;SDS011;2845;48.626;9.362;2023-06-10T02:03:51;6.72;;;3.90;;
5646;SDS011;2845;48.626;9.362;2023-06-10T02:06:25;5.80;;;3.30;;
5646;SDS011;2845;48.626;9.362;2023-06-10T02:09:00;5.30;;;3.35;;
5646;SDS011;2845;48.626;9.362;2023-06-10T02:11:35;6.80;;;3.55;;
5646;SDS011;2845;48.626;9.362;2023-06-10T02:14:09;6.18;;;3.63;;
5646;SDS011;2845;48.626;9.362;2023-06-10T02:16:43;7.30;;;3.60;;
5646;SDS011;2845;48.626;9.362;2023-06-10T02:19:19;5.38;;;3.28;;
5646;SDS011;2845;48.626;9.362;2023-06-10T02:21:53;5.05;;;2.78;;
5646;SDS011;2845;48.626;9.362;2023-06-10T02:24:29;5.15;;;3.38;;
5646;SDS011;2845;48.626;9.362;2023-06-10T02:27:03;5.93;;;3.35;;
5646;SDS011;2845;48.626;9.362;2023-06-10T02:29:39;4.75;;;3.10;;
5646;SDS011;2845;48.626;9.362;2023-06-10T02:32:14;6.05;;;3.50;;
5646;SDS011;2845;48.626;9.362;2023-06-10T02:34:48;5.45;;;3.30;;
5646;SDS011;2845;48.626;9.362;2023-06-10T02:37:23;6.10;;;3.25;;
5646;SDS011;2845;48.626;9.362;2023-06-10T02:39:58;5.75;;;3.63;;
5646;SDS011;2845;48.626;9.362;2023-06-10T02:42:32;6.13;;;3.50;;
5646;SDS011;2845;48.626;9.362;2023-06-10T02:45:07;6.38;;;3.65;;
5646;SDS011;2845;48.626;9.362;2023-06-10T02:47:42;5.68;;;3.08;;
5646;SDS011;2845;48.626;9.362;2023-06-10T02:50:16;5.28;;;3.35;;
5646;SDS011;2845;48.626;9.362;2023-06-10T02:52:50;6.32;;;3.50;;
5646;SDS011;2845;48.626;9.362;2023-06-10T02:55:26;5.72;;;3.50;;
5646;SDS011;2845;48.626;9.362;2023-06-10T02:58:01;6.80;;;3.60;;
5646;SDS011;2845;48.626;9.362;2023-06-10T03:00:35;6.57;;;3.60;;
5646;SDS011;2845;48.626;9.362;2023-06-10T03:03:12;8.10;;;3.65;;
5646;SDS011;2845;48.626;9.362;2023-06-10T03:05:47;5.03;;;3.20;;
5646;SDS011;2845;48.626;9.362;2023-06-10T03:08:21;5.65;;;3.33;;
5646;SDS011;2845;48.626;9.362;2023-06-10T03:10:56;5.68;;;3.20;;
5646;SDS011;2845;48.626;9.362;2023-06-10T03:13:31;7.30;;;3.33;;
5646;SDS011;2845;48.626;9.362;2023-06-10T03:16:05;5.53;;;3.40;;
5646;SDS011;2845;48.626;9.362;2023-06-10T03:18:40;6.40;;;3.25;;
5646;SDS011;2845;48.626;9.362;2023-06-10T03:21:14;6.20;;;3.63;;
5646;SDS011;2845;48.626;9.362;2023-06-10T03:23:48;5.40;;;3.35;;
5646;SDS011;2845;48.626;9.362;2023-06-10T03:26:25;5.63;;;3.47;;
5646;SDS011;2845;48.626;9.362;2023-06-10T03:29:00;6.57;;;3.33;;
5646;SDS011;2845;48.626;9.362;2023-06-10T03:31:34;6.13;;;3.47;;
5646;SDS011;2845;48.626;9.362;2023-06-10T03:34:09;6.45;;;3.58;;
5646;SDS011;2845;48.626;9.362;2023-06-10T03:36:43;5.80;;;3.72;;
5646;SDS011;2845;48.626;9.362;2023-06-10T03:39:17;7.25;;;3.60;;
5646;SDS011;2845;48.626;9.362;2023-06-10T03:41:52;6.57;;;3.50;;
5646;SDS011;2845;48.626;9.362;2023-06-10T03:44:26;4.78;;;2.97;;
5646;SDS011;2845;48.626;9.362;2023-06-10T03:47:00;6.53;;;3.15;;
5646;SDS011;2845;48.626;9.362;2023-06-10T03:49:35;6.05;;;3.17;;
5646;SDS011;2845;48.626;9.362;2023-06-10T03:52:09;4.95;;;3.00;;
5646;SDS011;2845;48.626;9.362;2023-06-10T03:54:43;6.53;;;3.30;;
5646;SDS011;2845;48.626;9.362;2023-06-10T03:57:18;6.05;;;3.38;;
5646;SDS011;2845;48.626;9.362;2023-06-10T03:59:53;6.00;;;3.15;;
5646;SDS011;2845;48.626;9.362;2023-06-10T04:02:27;5.07;;;3.00;;
5646;SDS011;2845;48.626;9.362;2023-06-10T04:05:02;5.70;;;3.22;;
5646;SDS011;2845;48.626;9.362;2023-06-10T04:07:37;5.00;;;3.35;;
5646;SDS011;2845;48.626;9.362;2023-06-10T04:10:13;5.82;;;3.63;;
5646;SDS011;2845;48.626;9.362;2023-06-10T04:12:49;6.45;;;3.42;;
5646;SDS011;2845;48.626;9.362;2023-06-10T04:15:23;7.80;;;3.45;;
5646;SDS011;2845;48.626;9.362;2023-06-10T04:17:57;5.95;;;3.53;;
5646;SDS011;2845;48.626;9.362;2023-06-10T04:20:32;5.95;;;3.35;;
5646;SDS011;2845;48.626;9.362;2023-06-10T04:23:06;5.93;;;3.20;;
5646;SDS011;2845;48.626;9.362;2023-06-10T04:25:40;4.45;;;2.90;;
5646;SDS011;2845;48.626;9.362;2023-06-10T04:28:15;5.75;;;3.42;;
5646;SDS011;2845;48.626;9.362;2023-06-10T04:30:49;5.28;;;2.83;;
5646;SDS011;2845;48.626;9.362;2023-06-10T04:33:24;5.75;;;3.42;;
5646;SDS011;2845;48.626;9.362;2023-06-10T04:35:58;8.32;;;3.63;;
5646;SDS011;2845;48.626;9.362;2023-06-10T04:38:32;8.48;;;3.83;;
5646;SDS011;2845;48.626;9.362;2023-06-10T04:41:06;5.25;;;3.15;;
5646;SDS011;2845;48.626;9.362;2023-06-10T04:43:42;6.00;;;3.35;;
5646;SDS011;2845;48.626;9.362;2023-06-10T04:46:16;5.65;;;3.00;;
5646;SDS011;2845;48.626;9.362;2023-06-10T04:48:50;5.32;;;3.13;;
5646;SDS011;2845;48.626;9.362;2023-06-10T04:51:27;6.57;;;3.30;;
5646;SDS011;2845;48.626;9.362;2023-06-10T04:54:01;5.57;;;3.10;;
5646;SDS011;2845;48.626;9.362;2023-06-10T04:56:36;5.60;;;3.50;;
5646;SDS011;2845;48.626;9.362;2023-06-10T04:59:12;4.70;;;3.20;;
5646;SDS011;2845;48.626;9.362;2023-06-10T05:01:47;7.65;;;3.45;;
5646;SDS011;2845;48.626;9.362;2023-06-10T05:04:21;4.68;;;3.10;;
5646;SDS011;2845;48.626;9.362;2023-06-10T05:06:56;5.60;;;2.92;;
5646;SDS011;2845;48.626;9.362;2023-06-10T05:09:30;5.25;;;3.17;;
5646;SDS011;2845;48.626;9.362;2023-06-10T05:12:05;5.85;;;3.30;;
5646;SDS011;2845;48.626;9.362;2023-06-10T05:14:42;4.68;;;2.95;;
5646;SDS011;2845;48.626;9.362;2023-06-10T05:17:17;6.20;;;3.40;;
5646;SDS011;2845;48.626;9.362;2023-06-10T05:19:51;6.38;;;3.65;;
5646;SDS011;2845;48.626;9.362;2023-06-10T05:22:25;5.55;;;3.20;;
5646;SDS011;2845;48.626;9.362;2023-06-10T05:24:59;4.85;;;3.40;;
5646;SDS011;2845;48.626;9.362;2023-06-10T05:27:33;5.80;;;3.65;;
5646;SDS011;2845;48.626;9.362;2023-06-10T05:30:09;5.93;;;3.45;;
5646;SDS011;2845;48.626;9.362;2023-06-10T05:32:44;5.32;;;3.00;;
5646;SDS011;2845;48.626;9.362;2023-06-10T05:35:19;4.97;;;3.30;;
5646;SDS011;2845;48.626;9.362;2023-06-10T05:37:53;5.90;;;3.55;;
5646;SDS011;2845;48.626;9.362;2023-06-10T05:40:27;5.63;;;3.50;;
5646;SDS011;2845;48.626;9.362;2023-06-10T05:43:01;6.00;;;3.25;;
5646;SDS011;2845;48.626;9.362;2023-06-10T05:45:36;6.68;;;3.97;;
5646;SDS011;2845;48.626;9.362;2023-06-10T05:48:12;6.10;;;4.00;;
5646;SDS011;2845;48.626;9.362;2023-06-10T05:50:47;6.18;;;4.13;;
5646;SDS011;2845;48.626;9.362;2023-06-10T05:53:21;6.18;;;3.58;;
5646;SDS011;2845;48.626;9.362;2023-06-10T05:55:55;6.72;;;3.60;;
5646;SDS011;2845;48.626;9.362;2023-06-10T05:58:30;7.10;;;3.63;;
5646;SDS011;2845;48.626;9.362;2023-06-10T06:01:06;5.13;;;2.92;;
5646;SDS011;2845;48.626;9.362;2023-06-10T06:03:40;5.25;;;3.28;;
5646;SDS011;2845;48.626;9.362;2023-06-10T06:06:15;7.75;;;3.58;;
5646;SDS011;2845;48.626;9.362;2023-06-10T06:08:49;5.70;;;3.30;;
5646;SDS011;2845;48.626;9.362;2023-06-10T06:11:23;4.88;;;3.03;;
5646;SDS011;2845;48.626;9.362;2023-06-10T06:13:58;5.00;;;3.65;;
5646;SDS011;2845;48.626;9.362;2023-06-10T06:16:34;5.82;;;3.15;;
5646;SDS011;2845;48.626;9.362;2023-06-10T06:19:08;5.63;;;3.50;;
5646;SDS011;2845;48.626;9.362;2023-06-10T06:21:43;5.40;;;3.63;;
5646;SDS011;2845;48.626;9.362;2023-06-10T06:24:17;6.30;;;3.38;;
5646;SDS011;2845;48.626;9.362;2023-06-10T06:26:51;5.30;;;3.28;;
5646;SDS011;2845;48.626;9.362;2023-06-10T06:29:25;4.95;;;3.20;;
5646;SDS011;2845;48.626;9.362;2023-06-10T06:32:04;5.13;;;2.90;;
5646;SDS011;2845;48.626;9.362;2023-06-10T06:34:39;6.35;;;2.97;;
5646;SDS011;2845;48.626;9.362;2023-06-10T06:37:13;5.22;;;2.90;;
5646;SDS011;2845;48.626;9.362;2023-06-10T06:39:47;5.78;;;3.30;;
5646;SDS011;2845;48.626;9.362;2023-06-10T06:42:21;4.82;;;2.83;;
5646;SDS011;2845;48.626;9.362;2023-06-10T06:44:55;5.30;;;3.55;;
5646;SDS011;2845;48.626;9.362;2023-06-10T06:47:31;5.80;;;3.10;;
5646;SDS011;2845;48.626;9.362;2023-06-10T06:50:05;5.97;;;3.22;;
5646;SDS011;2845;48.626;9.362;2023-06-10T06:52:40;4.90;;;3.28;;
5646;SDS011;2845;48.626;9.362;2023-06-10T06:55:14;5.43;;;2.90;;
5646;SDS011;2845;48.626;9.362;2023-06-10T06:57:48;3.65;;;2.63;;
5646;SDS011;2845;48.626;9.362;2023-06-10T07:00:22;5.15;;;2.78;;
5646;SDS011;2845;48.626;9.362;2023-06-10T07:02:58;4.82;;;2.58;;
5646;SDS011;2845;48.626;9.362;2023-06-10T07:05:32;4.45;;;2.45;;
5646;SDS011;2845;48.626;9.362;2023-06-10T07:08:07;6.35;;;2.70;;
5646;SDS011;2845;48.626;9.362;2023-06-10T07:10:41;5.22;;;2.88;;
5646;SDS011;2845;48.626;9.362;2023-06-10T07:13:15;4.88;;;3.00;;
5646;SDS011;2845;48.626;9.362;2023-06-10T07:15:49;4.82;;;2.75;;
5646;SDS011;2845;48.626;9.362;2023-06-10T07:18:25;5.20;;;2.72;;
5646;SDS011;2845;48.626;9.362;2023-06-10T07:20:59;4.47;;;2.90;;
5646;SDS011;2845;48.626;9.362;2023-06-10T07:23:33;5.28;;;2.20;;
5646;SDS011;2845;48.626;9.362;2023-06-10T07:26:07;5.38;;;2.80;;
5646;SDS011;2845;48.626;9.362;2023-06-10T07:28:43;6.47;;;3.20;;
5646;SDS011;2845;48.626;9.362;2023-06-10T07:31:17;4.93;;;3.03;;
5646;SDS011;2845;48.626;9.362;2023-06-10T07:33:53;4.70;;;2.72;;
5646;SDS011;2845;48.626;9.362;2023-06-10T07:36:27;4.88;;;2.80;;
5646;SDS011;2845;48.626;9.362;2023-06-10T07:39:02;5.40;;;3.13;;
5646;SDS011;2845;48.626;9.362;2023-06-10T07:41:36;5.45;;;3.08;;
5646;SDS011;2845;48.626;9.362;2023-06-10T07:44:10;5.10;;;2.85;;
5646;SDS011;2845;48.626;9.362;2023-06-10T07:46:46;4.85;;;2.80;;
5646;SDS011;2845;48.626;9.362;2023-06-10T07:49:22;4.47;;;2.88;;
5646;SDS011;2845;48.626;9.362;2023-06-10T07:51:56;5.05;;;3.05;;
5646;SDS011;2845;48.626;9.362;2023-06-10T07:54:31;6.15;;;3.13;;
5646;SDS011;2845;48.626;9.362;2023-06-10T07:57:05;4.55;;;2.83;;
5646;SDS011;2845;48.626;9.362;2023-06-10T07:59:40;5.50;;;2.80;;
5646;SDS011;2845;48.626;9.362;2023-06-10T08:02:16;4.05;;;2.55;;
5646;SDS011;2845;48.626;9.362;2023-06-10T08:04:52;4.55;;;2.65;;
5646;SDS011;2845;48.626;9.362;2023-06-10T08:07:26;6.80;;;3.25;;
5646;SDS011;2845;48.626;9.362;2023-06-10T08:10:00;5.15;;;2.63;;
5646;SDS011;2845;48.626;9.362;2023-06-10T08:12:36;5.95;;;3.05;;
5646;SDS011;2845;48.626;9.362;2023-06-10T08:15:10;5.22;;;2.55;;
5646;SDS011;2845;48.626;9.362;2023-06-10T08:17:45;4.68;;;2.88;;
5646;SDS011;2845;48.626;9.362;2023-06-10T08:20:20;4.50;;;2.45;;
5646;SDS011;2845;48.626;9.362;2023-06-10T08:22:54;4.50;;;2.80;;
5646;SDS011;2845;48.626;9.362;2023-06-10T08:25:28;4.15;;;2.83;;
5646;SDS011;2845;48.626;9.362;2023-06-10T08:28:02;4.53;;;2.58;;
5646;SDS011;2845;48.626;9.362;2023-06-10T08:30:37;3.90;;;2.45;;
5646;SDS011;2845;48.626;9.362;2023-06-10T08:33:11;3.40;;;2.38;;
5646;SDS011;2845;48.626;9.362;2023-06-10T08:35:47;3.92;;;2.15;;
5646;SDS011;2845;48.626;9.362;2023-06-10T08:38:21;3.90;;;2.30;;
5646;SDS011;2845;48.626;9.362;2023-06-10T08:40:55;4.55;;;2.25;;
5646;SDS011;2845;48.626;9.362;2023-06-10T08:43:33;3.67;;;2.30;;
5646;SDS011;2845;48.626;9.362;2023-06-10T08:46:12;4.45;;;2.53;;
5646;SDS011;2845;48.626;9.362;2023-06-10T08:48:48;4.00;;;2.60;;
5646;SDS011;2845;48.626;9.362;2023-06-10T08:51:30;4.55;;;2.78;;
5646;SDS011;2845;48.626;9.362;2023-06-10T08:54:11;3.58;;;2.30;;
5646;SDS011;2845;48.626;9.362;2023-06-10T08:56:51;3.90;;;2.25;;
5646;SDS011;2845;48.626;9.362;2023-06-10T08:59:29;4.40;;;2.72;;
5646;SDS011;2845;48.626;9.362;2023-06-10T09:02:03;3.45;;;2.22;;
5646;SDS011;2845;48.626;9.362;2023-06-10T09:04:38;3.70;;;2.30;;
5646;SDS011;2845;48.626;9.362;2023-06-10T09:07:14;3.38;;;2.08;;
5646;SDS011;2845;48.626;9.362;2023-06-10T09:09:49;3.30;;;2.38;;
5646;SDS011;2845;48.626;9.362;2023-06-10T09:12:25;4.75;;;2.47;;
5646;SDS011;2845;48.626;9.362;2023-06-10T09:15:01;4.13;;;2.20;;
5646;SDS011;2845;48.626;9.362;2023-06-10T09:17:36;3.17;;;2.03;;
5646;SDS011;2845;48.626;9.362;2023-06-10T09:20:10;4.30;;;2.45;;
5646;SDS011;2845;48.626;9.362;2023-06-10T09:22:47;4.28;;;2.20;;
5646;SDS011;2845;48.626;9.362;2023-06-10T09:25:28;4.13;;;2.47;;
5646;SDS011;2845;48.626;9.362;2023-06-10T09:28:13;3.38;;;2.40;;
5646;SDS011;2845;48.626;9.362;2023-06-10T09:30:48;4.35;;;2.80;;
5646;SDS011;2845;48.626;9.362;2023-06-10T09:33:23;3.58;;;2.63;;
5646;SDS011;2845;48.626;9.362;2023-06-10T09:36:00;3.75;;;2.40;;
5646;SDS011;2845;48.626;9.362;2023-06-10T09:38:37;4.15;;;2.35;;
5646;SDS011;2845;48.626;9.362;2023-06-10T09:41:11;4.20;;;2.65;;
5646;SDS011;2845;48.626;9.362;2023-06-10T09:43:47;3.88;;;2.70;;
5646;SDS011;2845;48.626;9.362;2023-06-10T09:46:21;4.80;;;2.78;;
5646;SDS011;2845;48.626;9.362;2023-06-10T09:48:55;4.10;;;3.03;;
5646;SDS011;2845;48.626;9.362;2023-06-10T09:51:32;3.40;;;2.50;;
5646;SDS011;2845;48.626;9.362;2023-06-10T09:54:08;4.68;;;2.70;;
5646;SDS011;2845;48.626;9.362;2023-06-10T09:56:42;4.90;;;3.03;;
5646;SDS011;2845;48.626;9.362;2023-06-10T09:59:16;3.70;;;2.63;;
5646;SDS011;2845;48.626;9.362;2023-06-10T10:02:03;3.70;;;2.50;;
5646;SDS011;2845;48.626;9.362;2023-06-10T10:04:42;3.97;;;2.40;;
5646;SDS011;2845;48.626;9.362;2023-06-10T10:07:17;5.20;;;2.72;;
5646;SDS011;2845;48.626;9.362;2023-06-10T10:09:52;4.18;;;2.78;;
5646;SDS011;2845;48.626;9.362;2023-06-10T10:12:26;5.38;;;2.70;;
5646;SDS011;2845;48.626;9.362;2023-06-10T10:15:01;4.75;;;2.80;;
5646;SDS011;2845;48.626;9.362;2023-06-10T10:17:37;3.90;;;2.90;;
5646;SDS011;2845;48.626;9.362;2023-06-10T10:20:17;4.40;;;2.95;;
5646;SDS011;2845;48.626;9.362;2023-06-10T10:22:59;3.92;;;2.83;;
5646;SDS011;2845;48.626;9.362;2023-06-10T10:25:40;4.40;;;2.53;;
5646;SDS011;2845;48.626;9.362;2023-06-10T10:28:16;4.07;;;3.15;;
5646;SDS011;2845;48.626;9.362;2023-06-10T10:30:54;3.55;;;2.83;;
5646;SDS011;2845;48.626;9.362;2023-06-10T10:33:45;5.40;;;3.08;;
5646;SDS011;2845;48.626;9.362;2023-06-10T10:36:32;5.18;;;3.05;;
5646;SDS011;2845;48.626;9.362;2023-06-10T10:39:06;3.95;;;2.80;;
5646;SDS011;2845;48.626;9.362;2023-06-10T10:41:42;3.90;;;2.70;;
5646;SDS011;2845;48.626;9.362;2023-06-10T10:44:17;3.55;;;2.78;;
5646;SDS011;2845;48.626;9.362;2023-06-10T10:46:52;3.63;;;2.70;;
5646;SDS011;2845;48.626;9.362;2023-06-10T10:49:27;3.85;;;2.63;;
5646;SDS011;2845;48.626;9.362;2023-06-10T10:52:04;4.55;;;2.65;;
5646;SDS011;2845;48.626;9.362;2023-06-10T10:54:43;4.47;;;2.85;;
5646;SDS011;2845;48.626;9.362;2023-06-10T10:57:21;3.33;;;2.60;;
5646;SDS011;2845;48.626;9.362;2023-06-10T10:59:58;3.67;;;2.55;;
5646;SDS011;2845;48.626;9.362;2023-06-10T11:02:40;5.38;;;3.20;;
5646;SDS011;2845;48.626;9.362;2023-06-10T11:05:16;4.03;;;2.90;;
5646;SDS011;2845;48.626;9.362;2023-06-10T11:07:54;3.70;;;2.70;;
5646;SDS011;2845;48.626;9.362;2023-06-10T11:10:30;5.07;;;3.50;;
5646;SDS011;2845;48.626;9.362;2023-06-10T11:13:09;3.92;;;2.92;;
5646;SDS011;2845;48.626;9.362;2023-06-10T11:15:47;4.70;;;3.05;;
5646;SDS011;2845;48.626;9.362;2023-06-10T11:18:24;5.85;;;3.70;;
5646;SDS011;2845;48.626;9.362;2023-06-10T11:21:00;3.90;;;3.10;;
5646;SDS011;2845;48.626;9.362;2023-06-10T11:23:39;4.53;;;3.30;;
5646;SDS011;2845;48.626;9.362;2023-06-10T11:26:20;5.40;;;3.67;;
5646;SDS011;2845;48.626;9.362;2023-06-10T11:29:08;3.75;;;2.40;;
5646;SDS011;2845;48.626;9.362;2023-06-10T11:31:44;4.40;;;3.08;;
5646;SDS011;2845;48.626;9.362;2023-06-10T11:34:22;4.05;;;2.90;;
5646;SDS011;2845;48.626;9.362;2023-06-10T11:36:59;4.25;;;3.22;;
5646;SDS011;2845;48.626;9.362;2023-06-10T11:39:33;4.30;;;3.10;;
5646;SDS011;2845;48.626;9.362;2023-06-10T11:42:07;4.00;;;2.65;;
5646;SDS011;2845;48.626;9.362;2023-06-10T11:44:48;3.92;;;3.00;;
5646;SDS011;2845;48.626;9.362;2023-06-10T11:47:25;4.45;;;2.88;;
5646;SDS011;2845;48.626;9.362;2023-06-10T11:50:00;4.72;;;3.00;;
5646;SDS011;2845;48.626;9.362;2023-06-10T11:52:35;3.20;;;2.60;;
5646;SDS011;2845;48.626;9.362;2023-06-10T11:55:13;3.85;;;2.60;;
5646;SDS011;2845;48.626;9.362;2023-06-10T11:57:48;4.82;;;3.20;;
5646;SDS011;2845;48.626;9.362;2023-06-10T12:00:30;4.30;;;3.10;;
5646;SDS011;2845;48.626;9.362;2023-06-10T12:03:05;4.13;;;3.20;;
5646;SDS011;2845;48.626;9.362;2023-06-10T12:05:39;4.00;;;2.75;;
5646;SDS011;2845;48.626;9.362;2023-06-10T12:08:13;2.92;;;2.50;;
5646;SDS011;2845;48.626;9.362;2023-06-10T12:10:47;3.95;;;2.45;;
5646;SDS011;2845;48.626;9.362;2023-06-10T12:13:22;3.70;;;2.67;;
5646;SDS011;2845;48.626;9.362;2023-06-10T12:16:07;3.40;;;2.78;;
5646;SDS011;2845;48.626;9.362;2023-06-10T12:18:43;3.50;;;2.47;;
5646;SDS011;2845;48.626;9.362;2023-06-10T12:21:18;2.97;;;2.42;;
5646;SDS011;2845;48.626;9.362;2023-06-10T12:24:04;3.80;;;2.80;;
5646;SDS011;2845;48.626;9.362;2023-06-10T12:26:41;4.75;;;3.00;;
5646;SDS011;2845;48.626;9.362;2023-06-10T12:29:18;3.63;;;2.78;;
5646;SDS011;2845;48.626;9.362;2023-06-10T12:31:57;4.20;;;2.88;;
5646;SDS011;2845;48.626;9.362;2023-06-10T12:34:34;3.30;;;2.65;;
5646;SDS011;2845;48.626;9.362;2023-06-10T12:37:11;4.30;;;2.88;;
5646;SDS011;2845;48.626;9.362;2023-06-10T12:39:50;3.85;;;2.90;;
5646;SDS011;2845;48.626;9.362;2023-06-10T12:42:26;3.67;;;2.70;;
5646;SDS011;2845;48.626;9.362;2023-06-10T12:45:00;17.75;;;16.10;;
5646;SDS011;2845;48.626;9.362;2023-06-10T12:47:36;98.10;;;87.35;;
5646;SDS011;2845;48.626;9.362;2023-06-10T12:50:12;89.30;;;74.80;;
5646;SDS011;2845;48.626;9.362;2023-06-10T12:52:46;28.30;;;22.58;;
5646;SDS011;2845;48.626;9.362;2023-06-10T12:55:20;89.10;;;69.75;;
5646;SDS011;2845;48.626;9.362;2023-06-10T12:57:54;19.85;;;16.10;;
5646;SDS011;2845;48.626;9.362;2023-06-10T13:00:29;4.57;;;3.75;;
5646;SDS011;2845;48.626;9.362;2023-06-10T13:03:05;10.65;;;9.52;;
5646;SDS011;2845;48.626;9.362;2023-06-10T13:05:39;10.82;;;9.93;;
5646;SDS011;2845;48.626;9.362;2023-06-10T13:08:14;6.53;;;5.57;;
5646;SDS011;2845;48.626;9.362;2023-06-10T13:10:48;15.95;;;12.50;;
5646;SDS011;2845;48.626;9.362;2023-06-10T13:13:22;7.43;;;6.00;;
5646;SDS011;2845;48.626;9.362;2023-06-10T13:15:56;6.88;;;3.50;;
5646;SDS011;2845;48.626;9.362;2023-06-10T13:18:34;8.25;;;5.78;;
5646;SDS011;2845;48.626;9.362;2023-06-10T13:21:10;5.28;;;3.95;;
5646;SDS011;2845;48.626;9.362;2023-06-10T13:23:47;5.75;;;4.78;;
5646;SDS011;2845;48.626;9.362;2023-06-10T13:26:22;4.15;;;3.30;;
5646;SDS011;2845;48.626;9.362;2023-06-10T13:28:56;5.80;;;4.10;;
5646;SDS011;2845;48.626;9.362;2023-06-10T13:31:30;4.50;;;3.10;;
5646;SDS011;2845;48.626;9.362;2023-06-10T13:34:06;4.55;;;3.42;;
5646;SDS011;2845;48.626;9.362;2023-06-10T13:36:40;4.05;;;3.20;;
5646;SDS011;2845;48.626;9.362;2023-06-10T13:39:14;4.03;;;2.90;;
5646;SDS011;2845;48.626;9.362;2023-06-10T13:41:49;2.95;;;2.50;;
5646;SDS011;2845;48.626;9.362;2023-06-10T13:44:24;3.53;;;2.70;;
5646;SDS011;2845;48.626;9.362;2023-06-10T13:46:58;3.88;;;2.97;;
5646;SDS011;2845;48.626;9.362;2023-06-10T13:49:34;4.80;;;3.30;;
5646;SDS011;2845;48.626;9.362;2023-06-10T13:52:08;4.05;;;3.15;;
5646;SDS011;2845;48.626;9.362;2023-06-10T13:54:42;3.42;;;2.97;;
5646;SDS011;2845;48.626;9.362;2023-06-10T13:57:17;5.63;;;3.72;;
5646;SDS011;2845;48.626;9.362;2023-06-10T13:59:51;4.00;;;3.25;;
5646;SDS011;2845;48.626;9.362;2023-06-10T14:02:25;3.60;;;2.90;;
5646;SDS011;2845;48.626;9.362;2023-06-10T14:05:01;4.97;;;2.88;;
5646;SDS011;2845;48.626;9.362;2023-06-10T14:07:35;3.78;;;2.63;;
5646;SDS011;2845;48.626;9.362;2023-06-10T14:10:10;4.78;;;3.08;;
5646;SDS011;2845;48.626;9.362;2023-06-10T14:12:44;4.53;;;2.92;;
5646;SDS011;2845;48.626;9.362;2023-06-10T14:15:18;4.68;;;2.95;;
5646;SDS011;2845;48.626;9.362;2023-06-10T14:17:53;3.60;;;2.70;;
5646;SDS011;2845;48.626;9.362;2023-06-10T14:20:28;3.85;;;2.90;;
5646;SDS011;2845;48.626;9.362;2023-06-10T14:23:03;4.85;;;3.17;;
5646;SDS011;2845;48.626;9.362;2023-06-10T14:25:37;4.65;;;3.15;;
5646;SDS011;2845;48.626;9.362;2023-06-10T14:28:12;3.25;;;2.60;;
5646;SDS011;2845;48.626;9.362;2023-06-10T14:30:46;3.75;;;2.95;;
5646;SDS011;2845;48.626;9.362;2023-06-10T14:33:20;3.75;;;3.00;;
5646;SDS011;2845;48.626;9.362;2023-06-10T14:35:55;3.72;;;3.13;;
5646;SDS011;2845;48.626;9.362;2023-06-10T14:38:29;4.13;;;3.20;;
5646;SDS011;2845;48.626;9.362;2023-06-10T14:41:03;3.85;;;2.95;;
5646;SDS011;2845;48.626;9.362;2023-06-10T14:43:38;3.85;;;2.95;;
5646;SDS011;2845;48.626;9.362;2023-06-10T14:46:12;4.22;;;3.28;;
5646;SDS011;2845;48.626;9.362;2023-06-10T14:48:46;4.43;;;3.03;;
5646;SDS011;2845;48.626;9.362;2023-06-10T14:51:22;3.13;;;2.58;;
5646;SDS011;2845;48.626;9.362;2023-06-10T14:53:57;3.28;;;2.75;;
5646;SDS011;2845;48.626;9.362;2023-06-10T14:56:31;4.22;;;2.58;;
5646;SDS011;2845;48.626;9.362;2023-06-10T14:59:05;3.53;;;2.90;;
5646;SDS011;2845;48.626;9.362;2023-06-10T15:01:39;3.65;;;2.70;;
5646;SDS011;2845;48.626;9.362;2023-06-10T15:04:13;3.60;;;2.92;;
5646;SDS011;2845;48.626;9.362;2023-06-10T15:06:49;6.28;;;3.08;;
5646;SDS011;2845;48.626;9.362;2023-06-10T15:09:23;4.70;;;3.08;;
5646;SDS011;2845;48.626;9.362;2023-06-10T15:11:57;2.97;;;2.50;;
5646;SDS011;2845;48.626;9.362;2023-06-10T15:14:32;4.00;;;2.90;;
5646;SDS011;2845;48.626;9.362;2023-06-10T15:17:07;3.38;;;2.83;;
5646;SDS011;2845;48.626;9.362;2023-06-10T15:19:41;4.30;;;2.90;;
5646;SDS011;2845;48.626;9.362;2023-06-10T15:22:16;4.15;;;2.72;;
5646;SDS011;2845;48.626;9.362;2023-06-10T15:24:51;3.15;;;2.45;;
5646;SDS011;2845;48.626;9.362;2023-06-10T15:27:25;3.50;;;2.90;;
5646;SDS011;2845;48.626;9.362;2023-06-10T15:29:59;3.53;;;2.88;;
5646;SDS011;2845;48.626;9.362;2023-06-10T15:32:33;4.07;;;3.30;;
5646;SDS011;2845;48.626;9.362;2023-06-10T15:35:07;3.88;;;2.95;;
5646;SDS011;2845;48.626;9.362;2023-06-10T15:37:44;4.30;;;2.90;;
5646;SDS011;2845;48.626;9.362;2023-06-10T15:40:18;4.50;;;3.17;;
5646;SDS011;2845;48.626;9.362;2023-06-10T15:42:52;3.30;;;3.00;;
5646;SDS011;2845;48.626;9.362;2023-06-10T15:45:26;3.20;;;2.60;;
5646;SDS011;2845;48.626;9.362;2023-06-10T15:48:00;3.50;;;2.72;;
5646;SDS011;2845;48.626;9.362;2023-06-10T15:50:35;3.33;;;2.72;;
5646;SDS011;2845;48.626;9.362;2023-06-10T15:53:10;3.50;;;2.70;;
5646;SDS011;2845;48.626;9.362;2023-06-10T15:55:44;4.25;;;2.92;;
5646;SDS011;2845;48.626;9.362;2023-06-10T15:58:18;3.35;;;2.50;;
5646;SDS011;2845;48.626;9.362;2023-06-10T16:00:52;5.95;;;3.28;;
5646;SDS011;2845;48.626;9.362;2023-06-10T16:03:26;4.50;;;3.33;;
5646;SDS011;2845;48.626;9.362;2023-06-10T16:06:01;3.22;;;2.67;;